sensor_id;sensor_type;location;lat;lon;timestamp;temperature;humidity
17346;DHT22;8790;53.590;10.002;2022-07-15T00:02:19;15.80;99.90
17346;DHT22;8790;53.590;10.002;2022-07-15T00:04:51;15.90;99.90
17346;DHT22;8790;53.590;10.002;2022-07-15T00:07:23;15.90;99.90
17346;DHT22;8790;53.590;10.002;2022-07-15T00:09:55;15.90;99.90
17346;DHT22;8790;53.590;10.002;2022-07-15T00:12:45;15.90;99.90
17346;DHT22;8790;53.590;10.002;2022-07-15T00:15:20;15.80;99.90
17346;DHT22;8790;53.590;10.002;2022-07-15T00:17:53;15.80;99.90
17346;DHT22;8790;53.590;10.002;2022-07-15T00:20:25;15.80;99.90
17346;DHT22;8790;53.590;10.002;2022-07-15T00:22:56;15.80;99.90
17346;DHT22;8790;53.590;10.002;2022-07-15T00:25:28;15.70;99.90
17346;DHT22;8790;53.590;10.002;2022-07-15T00:28:01;15.70;99.90
17346;DHT22;8790;53.590;10.002;2022-07-15T00:30:36;15.80;99.90
17346;DHT22;8790;53.590;10.002;2022-07-15T00:33:09;15.80;99.90
17346;DHT22;8790;53.590;10.002;2022-07-15T00:35:42;15.80;99.90
17346;DHT22;8790;53.590;10.002;2022-07-15T00:38:13;15.70;99.90
17346;DHT22;8790;53.590;10.002;2022-07-15T00:40:47;15.70;99.90
17346;DHT22;8790;53.590;10.002;2022-07-15T00:43:19;15.70;99.90
17346;DHT22;8790;53.590;10.002;2022-07-15T00:45:52;15.70;99.90
17346;DHT22;8790;53.590;10.002;2022-07-15T00:48:24;15.70;99.90
17346;DHT22;8790;53.590;10.002;2022-07-15T00:50:56;15.60;99.90
17346;DHT22;8790;53.590;10.002;2022-07-15T00:53:29;15.70;99.90
17346;DHT22;8790;53.590;10.002;2022-07-15T00:56:01;15.70;99.90
17346;DHT22;8790;53.590;10.002;2022-07-15T00:58:36;15.60;99.90
17346;DHT22;8790;53.590;10.002;2022-07-15T01:01:10;15.70;99.90
17346;DHT22;8790;53.590;10.002;2022-07-15T01:03:43;15.60;99.90
17346;DHT22;8790;53.590;10.002;2022-07-15T01:06:15;15.70;99.90
17346;DHT22;8790;53.590;10.002;2022-07-15T01:08:47;15.60;99.90
17346;DHT22;8790;53.590;10.002;2022-07-15T01:11:19;15.50;99.90
17346;DHT22;8790;53.590;10.002;2022-07-15T01:13:51;15.50;99.90
17346;DHT22;8790;53.590;10.002;2022-07-15T01:16:25;15.60;99.90
17346;DHT22;8790;53.590;10.002;2022-07-15T01:18:57;15.70;99.90
17346;DHT22;8790;53.590;10.002;2022-07-15T01:21:37;15.60;99.90
17346;DHT22;8790;53.590;10.002;2022-07-15T01:24:08;15.70;99.90
17346;DHT22;8790;53.590;10.002;2022-07-15T01:26:51;15.60;99.90
17346;DHT22;8790;53.590;10.002;2022-07-15T01:29:26;15.60;99.90
17346;DHT22;8790;53.590;10.002;2022-07-15T01:31:58;15.60;99.90
17346;DHT22;8790;53.590;10.002;2022-07-15T01:34:31;15.60;99.90
17346;DHT22;8790;53.590;10.002;2022-07-15T01:37:05;15.70;99.90
17346;DHT22;8790;53.590;10.002;2022-07-15T01:39:39;15.70;99.90
17346;DHT22;8790;53.590;10.002;2022-07-15T01:42:11;15.70;99.90
17346;DHT22;8790;53.590;10.002;2022-07-15T01:44:43;15.80;99.90
17346;DHT22;8790;53.590;10.002;2022-07-15T01:47:15;15.80;99.90
17346;DHT22;8790;53.590;10.002;2022-07-15T01:49:46;15.60;99.90
17346;DHT22;8790;53.590;10.002;2022-07-15T01:52:19;15.70;99.90
17346;DHT22;8790;53.590;10.002;2022-07-15T01:54:51;15.50;99.90
17346;DHT22;8790;53.590;10.002;2022-07-15T01:57:23;15.60;99.90
17346;DHT22;8790;53.590;10.002;2022-07-15T01:59:59;15.60;99.90
17346;DHT22;8790;53.590;10.002;2022-07-15T02:02:51;15.60;99.90
17346;DHT22;8790;53.590;10.002;2022-07-15T02:05:25;15.70;99.90
17346;DHT22;8790;53.590;10.002;2022-07-15T02:08:00;15.60;99.90
17346;DHT22;8790;53.590;10.002;2022-07-15T02:10:32;15.70;99.90
17346;DHT22;8790;53.590;10.002;2022-07-15T02:13:15;15.70;99.90
17346;DHT22;8790;53.590;10.002;2022-07-15T02:15:52;15.60;99.90
17346;DHT22;8790;53.590;10.002;2022-07-15T02:18:24;15.50;99.90
17346;DHT22;8790;53.590;10.002;2022-07-15T02:20:56;15.50;99.90
17346;DHT22;8790;53.590;10.002;2022-07-15T02:23:29;15.50;99.90
17346;DHT22;8790;53.590;10.002;2022-07-15T02:26:01;15.50;99.90
17346;DHT22;8790;53.590;10.002;2022-07-15T02:28:32;15.40;99.90
17346;DHT22;8790;53.590;10.002;2022-07-15T02:31:05;15.40;99.90
17346;DHT22;8790;53.590;10.002;2022-07-15T02:33:40;15.20;99.90
17346;DHT22;8790;53.590;10.002;2022-07-15T02:36:14;15.30;99.90
17346;DHT22;8790;53.590;10.002;2022-07-15T02:38:50;15.30;99.90
17346;DHT22;8790;53.590;10.002;2022-07-15T02:41:21;15.30;99.90
17346;DHT22;8790;53.590;10.002;2022-07-15T02:43:54;15.20;99.90
17346;DHT22;8790;53.590;10.002;2022-07-15T02:46:26;15.20;99.90
17346;DHT22;8790;53.590;10.002;2022-07-15T02:48:58;15.20;99.90
17346;DHT22;8790;53.590;10.002;2022-07-15T02:51:30;15.20;99.90
17346;DHT22;8790;53.590;10.002;2022-07-15T02:54:04;15.30;99.90
17346;DHT22;8790;53.590;10.002;2022-07-15T02:56:38;15.30;99.90
17346;DHT22;8790;53.590;10.002;2022-07-15T02:59:09;15.20;99.90
17346;DHT22;8790;53.590;10.002;2022-07-15T03:01:41;15.20;99.90
17346;DHT22;8790;53.590;10.002;2022-07-15T03:04:15;15.30;99.90
17346;DHT22;8790;53.590;10.002;2022-07-15T03:06:46;15.30;99.90
17346;DHT22;8790;53.590;10.002;2022-07-15T03:09:21;15.30;99.90
17346;DHT22;8790;53.590;10.002;2022-07-15T03:11:54;15.30;99.90
17346;DHT22;8790;53.590;10.002;2022-07-15T03:14:26;15.30;99.90
17346;DHT22;8790;53.590;10.002;2022-07-15T03:16:58;15.40;99.90
17346;DHT22;8790;53.590;10.002;2022-07-15T03:19:30;15.40;99.90
17346;DHT22;8790;53.590;10.002;2022-07-15T03:22:02;15.40;99.90
17346;DHT22;8790;53.590;10.002;2022-07-15T03:24:38;15.30;99.90
17346;DHT22;8790;53.590;10.002;2022-07-15T03:27:09;15.30;99.90
17346;DHT22;8790;53.590;10.002;2022-07-15T03:29:42;15.40;99.90
17346;DHT22;8790;53.590;10.002;2022-07-15T03:32:16;15.30;99.90
17346;DHT22;8790;53.590;10.002;2022-07-15T03:34:51;15.30;99.90
17346;DHT22;8790;53.590;10.002;2022-07-15T03:37:28;15.30;99.90
17346;DHT22;8790;53.590;10.002;2022-07-15T03:40:01;15.30;99.90
17346;DHT22;8790;53.590;10.002;2022-07-15T03:42:34;15.30;99.90
17346;DHT22;8790;53.590;10.002;2022-07-15T03:45:07;15.40;99.90
17346;DHT22;8790;53.590;10.002;2022-07-15T03:47:39;15.40;99.90
17346;DHT22;8790;53.590;10.002;2022-07-15T03:50:16;15.30;99.90
17346;DHT22;8790;53.590;10.002;2022-07-15T03:52:48;15.20;99.90
17346;DHT22;8790;53.590;10.002;2022-07-15T03:55:21;15.20;99.90
17346;DHT22;8790;53.590;10.002;2022-07-15T03:57:54;15.20;99.90
17346;DHT22;8790;53.590;10.002;2022-07-15T04:00:26;15.30;99.90
17346;DHT22;8790;53.590;10.002;2022-07-15T04:03:01;15.20;99.90
17346;DHT22;8790;53.590;10.002;2022-07-15T04:05:33;15.30;99.90
17346;DHT22;8790;53.590;10.002;2022-07-15T04:08:05;15.20;99.90
17346;DHT22;8790;53.590;10.002;2022-07-15T04:10:38;15.20;99.90
17346;DHT22;8790;53.590;10.002;2022-07-15T04:13:10;15.10;99.90
17346;DHT22;8790;53.590;10.002;2022-07-15T04:15:42;15.30;99.90
17346;DHT22;8790;53.590;10.002;2022-07-15T04:18:13;15.10;99.90
17346;DHT22;8790;53.590;10.002;2022-07-15T04:20:45;15.30;99.90
17346;DHT22;8790;53.590;10.002;2022-07-15T04:23:17;15.30;99.90
17346;DHT22;8790;53.590;10.002;2022-07-15T04:25:52;15.20;99.90
17346;DHT22;8790;53.590;10.002;2022-07-15T04:28:24;15.20;99.90
17346;DHT22;8790;53.590;10.002;2022-07-15T04:30:56;15.20;99.90
17346;DHT22;8790;53.590;10.002;2022-07-15T04:33:28;15.20;99.90
17346;DHT22;8790;53.590;10.002;2022-07-15T04:36:00;15.30;99.90
17346;DHT22;8790;53.590;10.002;2022-07-15T04:38:32;15.30;99.90
17346;DHT22;8790;53.590;10.002;2022-07-15T04:41:05;15.40;99.90
17346;DHT22;8790;53.590;10.002;2022-07-15T04:43:37;15.30;99.90
17346;DHT22;8790;53.590;10.002;2022-07-15T04:46:09;15.30;99.90
17346;DHT22;8790;53.590;10.002;2022-07-15T04:48:41;15.10;99.90
17346;DHT22;8790;53.590;10.002;2022-07-15T04:51:34;15.10;99.90
17346;DHT22;8790;53.590;10.002;2022-07-15T04:54:06;15.20;99.90
17346;DHT22;8790;53.590;10.002;2022-07-15T04:56:39;15.20;99.90
17346;DHT22;8790;53.590;10.002;2022-07-15T04:59:12;15.30;99.90
17346;DHT22;8790;53.590;10.002;2022-07-15T05:01:44;15.30;99.90
17346;DHT22;8790;53.590;10.002;2022-07-15T05:04:19;15.30;99.90
17346;DHT22;8790;53.590;10.002;2022-07-15T05:06:51;15.20;99.90
17346;DHT22;8790;53.590;10.002;2022-07-15T05:09:23;15.40;99.90
17346;DHT22;8790;53.590;10.002;2022-07-15T05:11:56;15.20;99.90
17346;DHT22;8790;53.590;10.002;2022-07-15T05:14:28;15.20;99.90
17346;DHT22;8790;53.590;10.002;2022-07-15T05:17:03;15.20;99.90
17346;DHT22;8790;53.590;10.002;2022-07-15T05:19:35;15.20;99.90
17346;DHT22;8790;53.590;10.002;2022-07-15T05:22:08;15.20;99.90
17346;DHT22;8790;53.590;10.002;2022-07-15T05:24:40;15.20;99.90
17346;DHT22;8790;53.590;10.002;2022-07-15T05:27:13;15.20;99.90
17346;DHT22;8790;53.590;10.002;2022-07-15T05:29:47;15.20;99.90
17346;DHT22;8790;53.590;10.002;2022-07-15T05:32:21;15.30;99.90
17346;DHT22;8790;53.590;10.002;2022-07-15T05:34:53;15.30;99.90
17346;DHT22;8790;53.590;10.002;2022-07-15T05:37:24;15.40;99.90
17346;DHT22;8790;53.590;10.002;2022-07-15T05:39:56;15.30;99.90
17346;DHT22;8790;53.590;10.002;2022-07-15T05:42:42;15.20;99.90
17346;DHT22;8790;53.590;10.002;2022-07-15T05:45:14;15.30;99.90
17346;DHT22;8790;53.590;10.002;2022-07-15T05:47:51;15.40;99.90
17346;DHT22;8790;53.590;10.002;2022-07-15T05:50:26;15.30;99.90
17346;DHT22;8790;53.590;10.002;2022-07-15T05:53:02;15.20;99.90
17346;DHT22;8790;53.590;10.002;2022-07-15T05:55:34;15.30;99.90
17346;DHT22;8790;53.590;10.002;2022-07-15T05:58:08;15.20;99.90
17346;DHT22;8790;53.590;10.002;2022-07-15T06:00:42;15.20;99.90
17346;DHT22;8790;53.590;10.002;2022-07-15T06:03:15;15.30;99.90
17346;DHT22;8790;53.590;10.002;2022-07-15T06:05:49;15.30;99.90
17346;DHT22;8790;53.590;10.002;2022-07-15T06:08:22;15.40;99.90
17346;DHT22;8790;53.590;10.002;2022-07-15T06:10:55;15.40;99.90
17346;DHT22;8790;53.590;10.002;2022-07-15T06:13:30;15.40;99.90
17346;DHT22;8790;53.590;10.002;2022-07-15T06:16:02;15.40;99.90
17346;DHT22;8790;53.590;10.002;2022-07-15T06:18:34;15.40;99.90
17346;DHT22;8790;53.590;10.002;2022-07-15T06:21:07;15.50;99.90
17346;DHT22;8790;53.590;10.002;2022-07-15T06:23:39;15.60;99.90
17346;DHT22;8790;53.590;10.002;2022-07-15T06:26:11;15.60;99.90
17346;DHT22;8790;53.590;10.002;2022-07-15T06:28:44;15.70;99.90
17346;DHT22;8790;53.590;10.002;2022-07-15T06:31:15;15.70;99.90
17346;DHT22;8790;53.590;10.002;2022-07-15T06:33:47;15.70;99.90
17346;DHT22;8790;53.590;10.002;2022-07-15T06:36:19;15.70;99.90
17346;DHT22;8790;53.590;10.002;2022-07-15T06:38:51;15.70;99.90
17346;DHT22;8790;53.590;10.002;2022-07-15T06:41:22;15.80;99.90
17346;DHT22;8790;53.590;10.002;2022-07-15T06:43:57;15.80;99.90
17346;DHT22;8790;53.590;10.002;2022-07-15T06:46:48;15.80;99.90
17346;DHT22;8790;53.590;10.002;2022-07-15T06:49:20;15.80;99.90
17346;DHT22;8790;53.590;10.002;2022-07-15T06:51:52;15.80;99.90
17346;DHT22;8790;53.590;10.002;2022-07-15T06:54:24;15.80;99.90
17346;DHT22;8790;53.590;10.002;2022-07-15T06:56:56;15.90;99.90
17346;DHT22;8790;53.590;10.002;2022-07-15T06:59:29;15.90;99.90
17346;DHT22;8790;53.590;10.002;2022-07-15T07:02:01;15.90;99.90
17346;DHT22;8790;53.590;10.002;2022-07-15T07:04:33;16.00;99.90
17346;DHT22;8790;53.590;10.002;2022-07-15T07:07:05;16.00;99.90
17346;DHT22;8790;53.590;10.002;2022-07-15T07:09:37;15.90;99.90
17346;DHT22;8790;53.590;10.002;2022-07-15T07:12:08;15.90;99.90
17346;DHT22;8790;53.590;10.002;2022-07-15T07:14:42;15.90;99.90
17346;DHT22;8790;53.590;10.002;2022-07-15T07:17:13;15.90;99.90
17346;DHT22;8790;53.590;10.002;2022-07-15T07:19:45;15.90;99.90
17346;DHT22;8790;53.590;10.002;2022-07-15T07:22:17;15.90;99.90
17346;DHT22;8790;53.590;10.002;2022-07-15T07:24:49;16.00;99.90
17346;DHT22;8790;53.590;10.002;2022-07-15T07:27:21;16.00;99.90
17346;DHT22;8790;53.590;10.002;2022-07-15T07:29:54;16.10;99.90
17346;DHT22;8790;53.590;10.002;2022-07-15T07:32:26;16.10;99.90
17346;DHT22;8790;53.590;10.002;2022-07-15T07:34:58;16.10;99.90
17346;DHT22;8790;53.590;10.002;2022-07-15T07:37:33;16.20;99.90
17346;DHT22;8790;53.590;10.002;2022-07-15T07:40:06;16.20;99.90
17346;DHT22;8790;53.590;10.002;2022-07-15T07:42:39;16.30;99.90
17346;DHT22;8790;53.590;10.002;2022-07-15T07:45:12;16.30;99.90
17346;DHT22;8790;53.590;10.002;2022-07-15T07:47:44;16.30;99.90
17346;DHT22;8790;53.590;10.002;2022-07-15T07:50:16;16.40;99.90
17346;DHT22;8790;53.590;10.002;2022-07-15T07:52:48;16.30;99.90
17346;DHT22;8790;53.590;10.002;2022-07-15T07:55:20;16.30;99.90
17346;DHT22;8790;53.590;10.002;2022-07-15T07:57:53;16.30;99.90
17346;DHT22;8790;53.590;10.002;2022-07-15T08:00:28;16.30;99.90
17346;DHT22;8790;53.590;10.002;2022-07-15T08:03:00;16.30;99.90
17346;DHT22;8790;53.590;10.002;2022-07-15T08:05:32;16.30;99.90
17346;DHT22;8790;53.590;10.002;2022-07-15T08:08:11;16.20;99.90
17346;DHT22;8790;53.590;10.002;2022-07-15T08:10:45;16.20;99.90
17346;DHT22;8790;53.590;10.002;2022-07-15T08:13:17;16.30;99.90
17346;DHT22;8790;53.590;10.002;2022-07-15T08:15:52;16.10;99.90
17346;DHT22;8790;53.590;10.002;2022-07-15T08:18:24;16.00;99.90
17346;DHT22;8790;53.590;10.002;2022-07-15T08:20:56;15.90;99.90
17346;DHT22;8790;53.590;10.002;2022-07-15T08:23:29;15.70;99.90
17346;DHT22;8790;53.590;10.002;2022-07-15T08:26:03;15.70;99.90
17346;DHT22;8790;53.590;10.002;2022-07-15T08:28:36;15.70;99.90
17346;DHT22;8790;53.590;10.002;2022-07-15T08:31:10;15.70;99.90
17346;DHT22;8790;53.590;10.002;2022-07-15T08:33:41;15.70;99.90
17346;DHT22;8790;53.590;10.002;2022-07-15T08:36:13;15.70;99.90
17346;DHT22;8790;53.590;10.002;2022-07-15T08:38:45;15.70;99.90
17346;DHT22;8790;53.590;10.002;2022-07-15T08:41:17;15.80;99.90
17346;DHT22;8790;53.590;10.002;2022-07-15T08:43:49;16.00;99.90
17346;DHT22;8790;53.590;10.002;2022-07-15T08:46:23;16.10;99.90
17346;DHT22;8790;53.590;10.002;2022-07-15T08:49:01;16.10;99.90
17346;DHT22;8790;53.590;10.002;2022-07-15T08:51:36;16.20;99.90
17346;DHT22;8790;53.590;10.002;2022-07-15T08:54:09;16.30;99.90
17346;DHT22;8790;53.590;10.002;2022-07-15T08:56:41;16.30;99.90
17346;DHT22;8790;53.590;10.002;2022-07-15T08:59:16;16.20;99.90
17346;DHT22;8790;53.590;10.002;2022-07-15T09:01:49;16.40;99.90
17346;DHT22;8790;53.590;10.002;2022-07-15T09:04:21;16.50;99.90
17346;DHT22;8790;53.590;10.002;2022-07-15T09:06:52;16.60;99.90
17346;DHT22;8790;53.590;10.002;2022-07-15T09:09:29;16.70;99.90
17346;DHT22;8790;53.590;10.002;2022-07-15T09:12:03;16.60;99.90
17346;DHT22;8790;53.590;10.002;2022-07-15T09:14:38;16.50;99.90
17346;DHT22;8790;53.590;10.002;2022-07-15T09:17:22;16.40;99.90
17346;DHT22;8790;53.590;10.002;2022-07-15T09:20:04;16.30;99.90
17346;DHT22;8790;53.590;10.002;2022-07-15T09:22:49;16.30;99.90
17346;DHT22;8790;53.590;10.002;2022-07-15T09:25:22;16.20;99.90
17346;DHT22;8790;53.590;10.002;2022-07-15T09:27:54;16.20;99.90
17346;DHT22;8790;53.590;10.002;2022-07-15T09:30:29;16.20;99.90
17346;DHT22;8790;53.590;10.002;2022-07-15T09:33:21;16.30;99.90
17346;DHT22;8790;53.590;10.002;2022-07-15T09:36:09;16.50;99.90
17346;DHT22;8790;53.590;10.002;2022-07-15T09:38:44;16.60;99.90
17346;DHT22;8790;53.590;10.002;2022-07-15T09:41:23;16.60;99.90
17346;DHT22;8790;53.590;10.002;2022-07-15T09:44:00;16.70;99.90
17346;DHT22;8790;53.590;10.002;2022-07-15T09:46:41;16.80;99.90
17346;DHT22;8790;53.590;10.002;2022-07-15T09:49:16;17.00;99.90
17346;DHT22;8790;53.590;10.002;2022-07-15T09:51:51;17.10;99.90
17346;DHT22;8790;53.590;10.002;2022-07-15T09:54:27;17.20;99.90
17346;DHT22;8790;53.590;10.002;2022-07-15T09:57:01;17.30;99.90
17346;DHT22;8790;53.590;10.002;2022-07-15T09:59:34;17.30;99.90
17346;DHT22;8790;53.590;10.002;2022-07-15T10:02:06;17.30;99.90
17346;DHT22;8790;53.590;10.002;2022-07-15T10:04:39;17.40;99.90
17346;DHT22;8790;53.590;10.002;2022-07-15T10:07:12;17.50;99.90
17346;DHT22;8790;53.590;10.002;2022-07-15T10:09:44;17.50;99.90
17346;DHT22;8790;53.590;10.002;2022-07-15T10:12:18;17.60;99.90
17346;DHT22;8790;53.590;10.002;2022-07-15T10:15:02;17.60;99.90
17346;DHT22;8790;53.590;10.002;2022-07-15T10:17:57;17.60;99.90
17346;DHT22;8790;53.590;10.002;2022-07-15T10:20:47;17.60;99.90
17346;DHT22;8790;53.590;10.002;2022-07-15T10:23:45;17.70;99.90
17346;DHT22;8790;53.590;10.002;2022-07-15T10:26:39;17.80;99.90
17346;DHT22;8790;53.590;10.002;2022-07-15T10:29:11;17.90;99.90
17346;DHT22;8790;53.590;10.002;2022-07-15T10:31:44;17.90;99.90
17346;DHT22;8790;53.590;10.002;2022-07-15T10:34:18;17.90;99.90
17346;DHT22;8790;53.590;10.002;2022-07-15T10:37:00;18.00;99.90
17346;DHT22;8790;53.590;10.002;2022-07-15T10:39:53;18.00;99.90
17346;DHT22;8790;53.590;10.002;2022-07-15T10:42:25;18.00;99.90
17346;DHT22;8790;53.590;10.002;2022-07-15T10:45:06;18.10;99.90
17346;DHT22;8790;53.590;10.002;2022-07-15T10:47:38;18.10;99.90
17346;DHT22;8790;53.590;10.002;2022-07-15T10:50:34;18.00;99.90
17346;DHT22;8790;53.590;10.002;2022-07-15T10:53:21;18.10;99.90
17346;DHT22;8790;53.590;10.002;2022-07-15T10:55:53;18.00;99.90
17346;DHT22;8790;53.590;10.002;2022-07-15T10:58:25;18.00;99.90
17346;DHT22;8790;53.590;10.002;2022-07-15T11:00:57;18.00;99.90
17346;DHT22;8790;53.590;10.002;2022-07-15T11:03:29;18.00;99.90
17346;DHT22;8790;53.590;10.002;2022-07-15T11:06:05;18.00;99.90
17346;DHT22;8790;53.590;10.002;2022-07-15T11:08:53;18.10;99.90
17346;DHT22;8790;53.590;10.002;2022-07-15T11:11:46;18.10;99.90
17346;DHT22;8790;53.590;10.002;2022-07-15T11:14:48;18.20;99.90
17346;DHT22;8790;53.590;10.002;2022-07-15T11:17:23;18.30;99.90
17346;DHT22;8790;53.590;10.002;2022-07-15T11:19:57;18.20;99.90
17346;DHT22;8790;53.590;10.002;2022-07-15T11:22:29;18.10;99.90
17346;DHT22;8790;53.590;10.002;2022-07-15T11:25:03;18.00;99.90
17346;DHT22;8790;53.590;10.002;2022-07-15T11:27:35;18.00;99.90
17346;DHT22;8790;53.590;10.002;2022-07-15T11:30:07;18.00;99.90
17346;DHT22;8790;53.590;10.002;2022-07-15T11:32:39;18.00;99.90
17346;DHT22;8790;53.590;10.002;2022-07-15T11:35:12;18.00;99.90
17346;DHT22;8790;53.590;10.002;2022-07-15T11:37:44;18.10;99.90
17346;DHT22;8790;53.590;10.002;2022-07-15T11:40:18;18.30;99.90
17346;DHT22;8790;53.590;10.002;2022-07-15T11:43:04;18.50;99.90
17346;DHT22;8790;53.590;10.002;2022-07-15T11:45:53;18.50;99.90
17346;DHT22;8790;53.590;10.002;2022-07-15T11:48:25;18.50;99.90
17346;DHT22;8790;53.590;10.002;2022-07-15T11:50:57;18.40;99.90
17346;DHT22;8790;53.590;10.002;2022-07-15T11:53:34;18.40;99.90
17346;DHT22;8790;53.590;10.002;2022-07-15T11:56:10;18.20;99.90
17346;DHT22;8790;53.590;10.002;2022-07-15T11:58:43;18.30;99.90
17346;DHT22;8790;53.590;10.002;2022-07-15T12:01:17;18.50;99.90
17346;DHT22;8790;53.590;10.002;2022-07-15T12:03:50;18.60;99.90
17346;DHT22;8790;53.590;10.002;2022-07-15T12:06:25;18.60;99.90
17346;DHT22;8790;53.590;10.002;2022-07-15T12:08:58;18.60;99.90
17346;DHT22;8790;53.590;10.002;2022-07-15T12:11:33;18.40;99.90
17346;DHT22;8790;53.590;10.002;2022-07-15T12:14:08;18.30;99.90
17346;DHT22;8790;53.590;10.002;2022-07-15T12:16:42;18.20;99.90
17346;DHT22;8790;53.590;10.002;2022-07-15T12:19:16;18.20;99.90
17346;DHT22;8790;53.590;10.002;2022-07-15T12:21:49;18.30;99.90
17346;DHT22;8790;53.590;10.002;2022-07-15T12:24:23;18.50;99.90
17346;DHT22;8790;53.590;10.002;2022-07-15T12:26:57;18.60;99.90
17346;DHT22;8790;53.590;10.002;2022-07-15T12:29:32;18.70;99.90
17346;DHT22;8790;53.590;10.002;2022-07-15T12:32:05;18.80;99.90
17346;DHT22;8790;53.590;10.002;2022-07-15T12:34:49;18.80;99.90
17346;DHT22;8790;53.590;10.002;2022-07-15T12:37:23;18.80;99.90
17346;DHT22;8790;53.590;10.002;2022-07-15T12:39:56;18.80;99.90
17346;DHT22;8790;53.590;10.002;2022-07-15T12:42:32;18.80;99.90
17346;DHT22;8790;53.590;10.002;2022-07-15T12:45:09;18.70;99.90
17346;DHT22;8790;53.590;10.002;2022-07-15T12:48:01;18.70;99.90
17346;DHT22;8790;53.590;10.002;2022-07-15T12:50:35;18.70;99.90
17346;DHT22;8790;53.590;10.002;2022-07-15T12:53:07;18.80;99.90
17346;DHT22;8790;53.590;10.002;2022-07-15T12:55:41;18.90;99.90
17346;DHT22;8790;53.590;10.002;2022-07-15T12:58:16;18.90;99.90
17346;DHT22;8790;53.590;10.002;2022-07-15T13:00:48;18.90;99.90
17346;DHT22;8790;53.590;10.002;2022-07-15T13:03:21;18.90;99.90
17346;DHT22;8790;53.590;10.002;2022-07-15T13:05:54;18.90;99.90
17346;DHT22;8790;53.590;10.002;2022-07-15T13:08:27;18.90;99.90
17346;DHT22;8790;53.590;10.002;2022-07-15T13:11:01;18.80;99.90
17346;DHT22;8790;53.590;10.002;2022-07-15T13:13:36;18.70;99.90
17346;DHT22;8790;53.590;10.002;2022-07-15T13:16:08;18.70;99.90
17346;DHT22;8790;53.590;10.002;2022-07-15T13:18:39;18.80;99.90
17346;DHT22;8790;53.590;10.002;2022-07-15T13:21:11;18.70;99.90
17346;DHT22;8790;53.590;10.002;2022-07-15T13:23:43;18.80;99.90
17346;DHT22;8790;53.590;10.002;2022-07-15T13:26:15;18.90;99.90
17346;DHT22;8790;53.590;10.002;2022-07-15T13:28:48;19.00;99.90
17346;DHT22;8790;53.590;10.002;2022-07-15T13:31:20;19.00;99.90
17346;DHT22;8790;53.590;10.002;2022-07-15T13:33:51;19.00;99.90
17346;DHT22;8790;53.590;10.002;2022-07-15T13:36:23;19.00;99.90
17346;DHT22;8790;53.590;10.002;2022-07-15T13:38:55;19.00;99.90
17346;DHT22;8790;53.590;10.002;2022-07-15T13:41:27;19.10;99.90
17346;DHT22;8790;53.590;10.002;2022-07-15T13:44:00;19.20;99.90
17346;DHT22;8790;53.590;10.002;2022-07-15T13:46:31;19.30;99.90
17346;DHT22;8790;53.590;10.002;2022-07-15T13:49:03;19.40;99.90
17346;DHT22;8790;53.590;10.002;2022-07-15T13:51:35;19.50;99.90
17346;DHT22;8790;53.590;10.002;2022-07-15T13:54:07;19.70;99.90
17346;DHT22;8790;53.590;10.002;2022-07-15T13:56:39;19.80;99.90
17346;DHT22;8790;53.590;10.002;2022-07-15T13:59:12;20.00;99.90
17346;DHT22;8790;53.590;10.002;2022-07-15T14:01:44;20.00;99.90
17346;DHT22;8790;53.590;10.002;2022-07-15T14:04:16;20.20;99.90
17346;DHT22;8790;53.590;10.002;2022-07-15T14:06:48;20.40;99.90
17346;DHT22;8790;53.590;10.002;2022-07-15T14:09:20;20.50;99.90
17346;DHT22;8790;53.590;10.002;2022-07-15T14:11:51;20.50;99.90
17346;DHT22;8790;53.590;10.002;2022-07-15T14:14:25;20.70;99.90
17346;DHT22;8790;53.590;10.002;2022-07-15T14:16:57;20.90;99.90
17346;DHT22;8790;53.590;10.002;2022-07-15T14:19:29;21.10;99.90
17346;DHT22;8790;53.590;10.002;2022-07-15T14:22:00;21.40;99.90
17346;DHT22;8790;53.590;10.002;2022-07-15T14:24:32;21.40;99.90
17346;DHT22;8790;53.590;10.002;2022-07-15T14:27:04;21.50;99.90
17346;DHT22;8790;53.590;10.002;2022-07-15T14:29:37;21.70;99.90
17346;DHT22;8790;53.590;10.002;2022-07-15T14:32:09;21.80;99.90
17346;DHT22;8790;53.590;10.002;2022-07-15T14:34:42;21.70;99.90
17346;DHT22;8790;53.590;10.002;2022-07-15T14:37:13;21.70;99.90
17346;DHT22;8790;53.590;10.002;2022-07-15T14:39:45;21.90;99.90
17346;DHT22;8790;53.590;10.002;2022-07-15T14:42:17;21.90;99.90
17346;DHT22;8790;53.590;10.002;2022-07-15T14:44:51;22.00;99.90
17346;DHT22;8790;53.590;10.002;2022-07-15T14:47:23;21.80;99.90
17346;DHT22;8790;53.590;10.002;2022-07-15T14:49:54;21.60;99.90
17346;DHT22;8790;53.590;10.002;2022-07-15T14:52:26;21.40;99.90
17346;DHT22;8790;53.590;10.002;2022-07-15T14:54:58;21.20;99.90
17346;DHT22;8790;53.590;10.002;2022-07-15T14:57:29;21.10;99.90
17346;DHT22;8790;53.590;10.002;2022-07-15T15:00:03;21.00;99.90
17346;DHT22;8790;53.590;10.002;2022-07-15T15:02:35;20.80;99.90
17346;DHT22;8790;53.590;10.002;2022-07-15T15:05:07;20.80;99.90
17346;DHT22;8790;53.590;10.002;2022-07-15T15:07:39;20.60;99.90
17346;DHT22;8790;53.590;10.002;2022-07-15T15:10:11;20.70;99.90
17346;DHT22;8790;53.590;10.002;2022-07-15T15:12:43;20.60;99.90
17346;DHT22;8790;53.590;10.002;2022-07-15T15:15:17;20.50;99.90
17346;DHT22;8790;53.590;10.002;2022-07-15T15:17:48;20.50;99.90
17346;DHT22;8790;53.590;10.002;2022-07-15T15:20:20;20.50;99.90
17346;DHT22;8790;53.590;10.002;2022-07-15T15:22:52;20.30;99.90
17346;DHT22;8790;53.590;10.002;2022-07-15T15:25:24;20.20;99.90
17346;DHT22;8790;53.590;10.002;2022-07-15T15:28:13;20.20;99.90
17346;DHT22;8790;53.590;10.002;2022-07-15T15:30:46;20.10;99.90
17346;DHT22;8790;53.590;10.002;2022-07-15T15:33:18;20.10;99.90
17346;DHT22;8790;53.590;10.002;2022-07-15T15:35:49;20.10;99.90
17346;DHT22;8790;53.590;10.002;2022-07-15T15:38:22;20.10;99.90
17346;DHT22;8790;53.590;10.002;2022-07-15T15:40:54;20.00;99.90
17346;DHT22;8790;53.590;10.002;2022-07-15T15:43:26;19.90;99.90
17346;DHT22;8790;53.590;10.002;2022-07-15T15:46:02;19.80;99.90
17346;DHT22;8790;53.590;10.002;2022-07-15T15:48:34;19.70;99.90
17346;DHT22;8790;53.590;10.002;2022-07-15T15:51:06;19.80;99.90
17346;DHT22;8790;53.590;10.002;2022-07-15T15:53:37;19.70;99.90
17346;DHT22;8790;53.590;10.002;2022-07-15T15:56:09;19.60;99.90
17346;DHT22;8790;53.590;10.002;2022-07-15T15:58:41;19.50;99.90
17346;DHT22;8790;53.590;10.002;2022-07-15T16:01:14;19.40;99.90
17346;DHT22;8790;53.590;10.002;2022-07-15T16:03:46;19.50;99.90
17346;DHT22;8790;53.590;10.002;2022-07-15T16:06:18;19.50;99.90
17346;DHT22;8790;53.590;10.002;2022-07-15T16:08:49;19.40;99.90
17346;DHT22;8790;53.590;10.002;2022-07-15T16:11:21;19.30;99.90
17346;DHT22;8790;53.590;10.002;2022-07-15T16:13:54;19.40;99.90